createdAt,value
2022-10-24T00:00:21.283Z,100003.09
2022-10-24T00:05:22.775Z,100012.91
2022-10-24T00:10:24.341Z,100024.13
2022-10-24T00:15:25.931Z,100044.69
2022-10-24T00:20:27.350Z,100073.22
2022-10-24T00:25:28.798Z,100051.59
2022-10-24T00:30:30.373Z,100040.75
2022-10-24T00:35:32.093Z,100010.81
2022-10-24T00:40:33.713Z,100033.03
2022-10-24T00:45:44.226Z,100028.75
2022-10-24T00:50:46.821Z,100035.66
2022-10-24T00:55:52.293Z,100006.63
2022-10-24T01:00:53.830Z,99994.50
2022-10-24T01:06:23.518Z,99999.53
2022-10-24T01:11:43.545Z,100001.22
2022-10-24T01:16:54.501Z,99985.53
2022-10-24T01:22:02.670Z,99987.19
2022-10-24T01:27:20.117Z,99962.34
2022-10-24T01:32:27.999Z,99942.56
2022-10-24T01:37:51.383Z,99932.00
2022-10-24T01:42:56.859Z,99924.44
2022-10-24T01:48:02.614Z,99922.44
2022-10-24T01:53:05.165Z,99920.44
2022-10-24T01:58:08.288Z,99894.22
2022-10-24T02:03:29.596Z,99895.22
2022-10-24T02:08:39.040Z,99917.19
2022-10-24T02:13:53.347Z,99917.72
2022-10-24T02:18:56.638Z,99914.72
2022-10-24T02:24:09.997Z,99920.88
2022-10-24T02:29:16.255Z,99917.06
2022-10-24T02:34:19.278Z,99908.38
2022-10-24T02:39:22.351Z,99925.06
2022-10-24T02:44:25.929Z,99908.81
2022-10-24T02:49:27.901Z,99917.34
2022-10-24T02:54:29.517Z,99918.66
2022-10-24T02:59:31.655Z,99911.09
2022-10-24T03:04:33.313Z,99910.53
2022-10-24T03:09:35.183Z,99910.81
2022-10-24T03:14:36.783Z,99908.53
2022-10-24T03:19:38.642Z,99908.97
2022-10-24T03:24:44.701Z,99902.41
2022-10-24T03:29:56.594Z,99894.88
2022-10-24T03:34:58.134Z,99881.47
2022-10-24T03:39:59.683Z,99887.06
2022-10-24T03:45:01.259Z,99889.47
2022-10-24T03:50:03.790Z,99881.63
2022-10-24T03:55:05.723Z,99891.91
2022-10-24T04:00:07.955Z,99892.00
2022-10-24T04:05:10.174Z,99874.03
2022-10-24T04:10:12.217Z,99869.72
2022-10-24T04:15:13.790Z,99871.47
2022-10-24T04:20:19.628Z,99875.75
2022-10-24T04:25:21.335Z,99884.44
2022-10-24T04:30:22.902Z,99879.00
2022-10-24T04:35:26.043Z,99892.28
2022-10-24T04:40:27.673Z,99891.56
2022-10-24T04:45:29.341Z,99885.97
2022-10-24T04:50:30.892Z,99912.50
2022-10-24T04:55:32.581Z,99900.22
2022-10-24T05:00:34.279Z,99903.09
2022-10-24T05:05:35.818Z,99917.94
2022-10-24T05:10:37.477Z,99905.94
2022-10-24T05:15:39.120Z,99917.59
2022-10-24T05:25:47.257Z,99916.25
2022-10-24T05:30:48.900Z,99915.97
2022-10-24T05:35:51.831Z,99910.16
2022-10-24T05:40:53.871Z,99909.59
2022-10-24T05:45:55.457Z,99923.59
2022-10-24T05:50:57.992Z,99926.75
2022-10-24T05:55:59.552Z,99935.31
2022-10-24T06:01:01.315Z,99934.59
2022-10-24T06:06:05.246Z,99934.47
2022-10-24T06:11:11.126Z,99942.44
2022-10-24T06:16:13.052Z,99924.09
2022-10-24T06:21:15.955Z,99936.41
2022-10-24T06:26:20.421Z,99939.78
2022-10-24T06:31:26.547Z,99953.75
2022-10-24T06:36:30.712Z,99954.31
2022-10-24T06:41:33.189Z,99963.59
2022-10-24T06:46:36.360Z,99961.69
2022-10-24T06:51:37.909Z,99946.06
2022-10-24T06:56:39.646Z,99941.91
2022-10-24T07:01:42.108Z,99945.81
2022-10-24T07:06:44.206Z,99934.56
2022-10-24T07:11:46.110Z,99947.53
2022-10-24T07:16:47.809Z,99952.91
2022-10-24T07:21:49.453Z,99944.06
2022-10-24T07:26:51.064Z,99943.97
2022-10-24T07:31:52.665Z,99955.34
2022-10-24T07:36:54.262Z,99951.34
2022-10-24T07:41:55.841Z,99952.19
2022-10-24T07:46:57.508Z,99957.63
2022-10-24T07:51:59.345Z,99962.88
2022-10-24T07:57:00.913Z,99976.66
2022-10-24T08:02:02.443Z,99967.03
2022-10-24T08:07:03.986Z,99966.25
2022-10-24T08:12:05.923Z,99968.72
2022-10-24T08:17:08.453Z,99972.25
2022-10-24T08:22:10.314Z,99962.72
2022-10-24T08:27:12.749Z,99964.94
2022-10-24T08:32:14.296Z,99963.13
2022-10-24T08:37:15.873Z,99953.13
2022-10-24T08:42:18.408Z,99952.81
2022-10-24T08:47:44.880Z,99960.81
2022-10-24T08:53:06.565Z,99957.66
2022-10-24T08:58:15.124Z,99951.88
2022-10-24T09:03:43.560Z,99945.56
2022-10-24T09:09:05.994Z,99945.06
2022-10-24T09:14:14.081Z,99939.44
2022-10-24T09:19:20.803Z,99938.94
2022-10-24T09:24:39.640Z,99948.03
2022-10-24T09:29:41.327Z,99950.69
2022-10-24T09:34:43.050Z,99949.75
2022-10-24T09:39:44.595Z,99951.97
2022-10-24T09:44:47.048Z,99946.44
2022-10-24T09:49:49.008Z,99956.59
2022-10-24T09:55:15.559Z,99954.19
2022-10-24T10:00:42.662Z,99961.97
2022-10-24T10:05:50.650Z,99956.69
2022-10-24T10:11:26.511Z,99942.94
2022-10-24T10:16:31.285Z,99922.94
2022-10-24T10:21:56.014Z,99937.38
2022-10-24T10:26:57.570Z,99935.97
2022-10-24T10:32:17.564Z,99934.25
2022-10-24T10:37:33.562Z,99928.97
2022-10-24T10:42:49.329Z,99929.16
2022-10-24T10:48:33.946Z,99929.16
2022-10-24T10:53:38.398Z,99930.56
2022-10-24T10:58:58.543Z,99929.22
2022-10-24T11:04:14.101Z,99924.25
2022-10-24T11:09:30.682Z,99924.28
2022-10-24T11:14:38.049Z,99918.13
2022-10-24T11:19:46.595Z,99922.00
2022-10-24T11:24:57.901Z,99913.41
2022-10-24T11:30:30.964Z,99899.28
2022-10-24T11:35:34.519Z,99899.53
2022-10-24T11:40:37.200Z,99900.22
2022-10-24T11:45:51.852Z,99887.53
2022-10-24T11:51:04.296Z,99888.31
2022-10-24T11:56:15.395Z,99895.88
2022-10-24T12:01:25.633Z,99891.31
2022-10-24T12:07:17.862Z,99875.78
2022-10-24T12:12:44.238Z,99881.81
2022-10-24T12:17:59.220Z,99870.06
2022-10-24T12:23:02.600Z,99856.97
2022-10-24T12:28:23.012Z,99853.78
2022-10-24T12:33:27.382Z,99856.06
2022-10-24T12:38:28.891Z,99853.16
2022-10-24T12:43:48.319Z,99837.59
2022-10-24T12:48:58.949Z,99836.47
2022-10-24T12:54:04.807Z,99830.97
2022-10-24T12:59:28.057Z,99822.69
2022-10-24T13:04:57.475Z,99840.13
2022-10-24T13:09:58.960Z,99829.06
2022-10-24T13:15:13.808Z,99846.75
2022-10-24T13:20:18.334Z,99843.72
2022-10-24T13:25:33.915Z,99858.09
2022-10-24T13:30:35.555Z,99864.25
2022-10-24T13:35:37.579Z,99860.19
2022-10-24T13:40:42.825Z,99863.84
2022-10-24T13:45:53.433Z,99852.41
2022-10-24T13:51:42.545Z,99863.78
2022-10-24T13:56:46.394Z,99859.69
2022-10-24T14:01:48.023Z,99866.97
2022-10-24T14:06:49.667Z,99877.78
2022-10-24T14:11:51.338Z,99889.84
2022-10-24T14:17:26.961Z,99901.38
2022-10-24T14:22:40.305Z,99882.41
2022-10-24T14:27:41.924Z,99889.56
2022-10-24T14:32:43.499Z,99899.66
2022-10-24T14:37:45.583Z,99894.69
2022-10-24T14:42:48.957Z,99876.91
2022-10-24T14:47:53.666Z,99882.63
2022-10-24T14:52:55.419Z,99881.03
2022-10-24T14:57:57.144Z,99878.19
2022-10-24T15:02:59.268Z,99879.09
2022-10-24T15:08:21.419Z,99875.69
2022-10-24T15:13:25.418Z,99872.25
2022-10-24T15:18:31.597Z,99874.34
2022-10-24T15:23:35.981Z,99879.84
2022-10-24T15:28:43.207Z,99887.56
2022-10-24T15:33:45.571Z,99888.75
2022-10-24T15:38:48.623Z,99899.88
2022-10-24T15:43:50.440Z,99910.78
2022-10-24T15:48:52.050Z,99911.31
2022-10-24T15:53:54.295Z,99917.44
2022-10-24T15:58:56.750Z,99912.69
2022-10-24T16:03:59.124Z,99901.41
2022-10-24T16:09:00.750Z,99889.50
2022-10-24T16:14:02.319Z,99897.34
2022-10-24T16:19:03.862Z,99897.66
2022-10-24T16:24:05.941Z,99898.31
2022-10-24T16:29:07.720Z,99889.78
2022-10-24T16:34:09.415Z,99900.69
2022-10-24T16:39:10.974Z,99905.13
2022-10-24T16:44:13.561Z,99898.16
2022-10-24T16:49:15.178Z,99903.09
2022-10-24T16:54:16.750Z,99901.69
2022-10-24T16:59:19.129Z,99906.81
2022-10-24T17:04:20.784Z,99912.59
2022-10-24T17:09:22.358Z,99911.28
2022-10-24T17:14:23.962Z,99925.59
2022-10-24T17:19:25.846Z,99928.13
2022-10-24T17:24:27.847Z,99921.84
2022-10-24T17:29:32.894Z,99919.81
2022-10-24T17:34:34.961Z,99930.72
2022-10-24T17:39:59.407Z,99927.66
2022-10-24T17:45:01.153Z,99934.81
2022-10-24T17:50:02.686Z,99933.28
2022-10-24T17:55:04.585Z,99934.97
2022-10-24T18:00:08.468Z,99941.94
2022-10-24T18:05:09.994Z,99931.50
2022-10-24T18:10:12.601Z,99927.78
2022-10-24T18:15:17.104Z,99932.19
2022-10-24T18:20:19.183Z,99942.88
2022-10-24T18:25:22.993Z,99937.03
2022-10-24T18:30:25.169Z,99930.72
2022-10-24T18:35:28.790Z,99938.94
2022-10-24T18:40:33.458Z,99944.72
2022-10-24T18:45:35.487Z,99945.69
2022-10-24T18:50:37.661Z,99949.50
2022-10-24T18:55:39.565Z,99941.72
2022-10-24T19:00:42.880Z,99959.75
2022-10-24T19:06:15.454Z,99960.66
2022-10-24T19:11:17.168Z,99966.50
2022-10-24T19:16:28.608Z,99973.28
2022-10-24T19:21:33.205Z,99967.22
2022-10-24T19:26:34.798Z,99959.94
2022-10-24T19:31:36.956Z,99953.00
2022-10-24T19:36:39.215Z,99960.06
2022-10-24T19:41:40.818Z,99979.78
2022-10-24T19:46:42.417Z,99976.69
2022-10-24T19:51:43.945Z,99973.56
2022-10-24T19:56:46.160Z,99973.56
2022-10-24T20:01:47.870Z,99973.88
2022-10-24T20:06:49.781Z,99966.94
2022-10-24T20:11:51.319Z,99961.69
2022-10-24T20:16:52.888Z,99970.84
2022-10-24T20:21:55.939Z,99973.56
2022-10-24T20:27:00.685Z,99964.03
2022-10-24T20:32:02.530Z,99964.22
2022-10-24T20:37:06.140Z,99973.13
2022-10-24T20:42:07.724Z,99981.13
2022-10-24T20:47:09.260Z,99977.72
2022-10-24T20:57:17.295Z,99970.84
2022-10-24T21:02:18.924Z,99967.41
2022-10-24T21:07:20.582Z,99967.78
2022-10-24T21:12:22.148Z,99967.47
2022-10-24T21:22:30.385Z,99969.13
2022-10-24T21:27:31.935Z,99966.09
2022-10-24T21:32:33.511Z,99976.78
2022-10-24T21:37:35.063Z,99984.88
2022-10-24T21:42:36.635Z,99993.28
2022-10-24T21:47:38.185Z,99993.81
2022-10-24T21:52:39.761Z,99979.53
2022-10-24T21:57:41.300Z,99984.59
2022-10-24T22:02:42.966Z,99987.41
2022-10-24T22:07:47.455Z,99982.81
2022-10-24T22:12:51.224Z,99982.91
2022-10-24T22:17:52.804Z,99991.38
2022-10-24T22:22:54.339Z,99989.66
2022-10-24T22:27:55.932Z,100002.25
2022-10-24T22:32:59.137Z,99998.19
2022-10-24T22:38:00.973Z,99996.50
2022-10-24T22:43:02.763Z,99999.38
2022-10-24T22:48:10.190Z,99990.34
2022-10-24T22:53:13.517Z,99989.50
2022-10-24T22:58:15.457Z,99992.84
2022-10-24T23:03:33.327Z,99993.00
2022-10-24T23:08:39.903Z,99992.41
2022-10-24T23:13:42.769Z,99984.53
2022-10-24T23:18:44.567Z,99991.94
2022-10-24T23:23:46.372Z,99995.31
2022-10-24T23:28:59.241Z,100002.28
2022-10-24T23:34:01.091Z,100014.00
2022-10-24T23:39:03.313Z,100012.53
2022-10-24T23:44:05.396Z,100017.19
2022-10-24T23:49:34.827Z,100011.44
2022-10-24T23:54:36.680Z,100010.28
2022-10-24T23:59:38.218Z,100008.72
